Time;durP1;ratioP1;P1;durP2;ratioP2;P2;SDS_P1;SDS_P2;PMS_P1;PMS_P2;Temp;Humidity;BMP_temperature;BMP_pressure;BME280_temperature;BME280_humidity;BME280_pressure;Samples;Min_cycle;Max_cycle;Signal;HPM_P1;HPM_P2
2023/04/07 06:48:40;;;;;;;1999.90;999.90;;;;;;;;;;5068081;28;20476;-66
2023/04/07 06:51:06;;;;;;;1999.90;999.90;;;;;;;;;;5067999;28;20021;-63
2023/04/07 06:53:32;;;;;;;1999.90;999.90;;;;;;;;;;5067789;28;20029;-64
2023/04/07 06:56:05;;;;;;;1999.90;999.90;;;;;;;;;;5068114;28;20055;-66
2023/04/07 06:58:31;;;;;;;1999.90;999.90;;;;;;;;;;5068161;28;20025;-63
2023/04/07 07:00:57;;;;;;;1999.90;999.90;;;;;;;;;;5067672;28;20052;-64
2023/04/07 07:03:26;;;;;;;1999.90;999.90;;;;;;;;;;5066805;28;20064;-63
2023/04/07 07:05:52;;;;;;;1999.90;999.90;;;;;;;;;;5059657;28;20037;-62
2023/04/07 07:08:18;;;;;;;1999.90;999.90;;;;;;;;;;5067526;28;20450;-62
2023/04/07 07:10:44;;;;;;;1999.90;999.90;;;;;;;;;;5067888;28;20464;-71
2023/04/07 07:13:10;;;;;;;1999.90;999.90;;;;;;;;;;5067510;28;20044;-62
2023/04/07 07:15:36;;;;;;;1999.90;999.90;;;;;;;;;;5067711;28;20024;-61
2023/04/07 07:18:02;;;;;;;1999.90;999.90;;;;;;;;;;5067381;28;20037;-64
2023/04/07 07:20:28;;;;;;;514.28;489.20;;;;;;;;;;5067615;28;20380;-62
2023/04/07 07:22:55;;;;;;;1999.90;999.90;;;;;;;;;;5067257;28;20029;-67
2023/04/07 07:25:21;;;;;;;1999.90;999.90;;;;;;;;;;5067222;28;20100;-62
2023/04/07 07:27:52;;;;;;;1999.90;999.90;;;;;;;;;;5067235;28;20781;-62
2023/04/07 07:30:18;;;;;;;1999.90;999.90;;;;;;;;;;5067252;28;20033;-70
2023/04/07 07:32:44;;;;;;;1999.90;999.90;;;;;;;;;;5067250;28;20032;-62
2023/04/07 07:35:10;;;;;;;1999.90;999.90;;;;;;;;;;5067044;28;20036;-62
2023/04/07 07:37:36;;;;;;;1999.90;999.90;;;;;;;;;;5067165;28;20480;-62
2023/04/07 07:40:02;;;;;;;1999.90;999.90;;;;;;;;;;5066457;28;20025;-63
2023/04/07 07:42:29;;;;;;;1999.90;999.90;;;;;;;;;;5067117;28;20477;-67
2023/04/07 07:44:56;;;;;;;1999.90;999.90;;;;;;;;;;5067151;28;20032;-62
2023/04/07 07:47:22;;;;;;;1999.90;999.90;;;;;;;;;;5065274;28;20063;-62
2023/04/07 07:49:48;;;;;;;1999.90;999.90;;;;;;;;;;5066829;28;20082;-62
2023/04/07 07:52:15;;;;;;;1999.90;999.90;;;;;;;;;;5065084;28;20460;-62
2023/04/07 07:54:41;;;;;;;1999.90;999.90;;;;;;;;;;5066770;28;20027;-61
2023/04/07 07:57:07;;;;;;;1999.90;999.90;;;;;;;;;;5066758;28;20162;-64
2023/04/07 07:59:33;;;;;;;1999.90;999.90;;;;;;;;;;5055823;28;20035;-62
2023/04/07 08:01:59;;;;;;;1999.90;999.90;;;;;;;;;;5053256;28;20091;-72
2023/04/07 08:04:25;;;;;;;1999.90;999.90;;;;;;;;;;5052979;28;20033;-61
2023/04/07 08:06:52;;;;;;;1999.90;999.90;;;;;;;;;;5053544;28;20468;-62
2023/04/07 08:09:19;;;;;;;1999.90;999.90;;;;;;;;;;5053045;28;20025;-62
2023/04/07 08:11:47;;;;;;;1999.90;999.90;;;;;;;;;;5053072;28;20036;-61
2023/04/07 08:14:13;;;;;;;1999.90;999.90;;;;;;;;;;5053283;28;20102;-63
2023/04/07 08:16:39;;;;;;;0.65;0.63;;;;;;;;;;5053306;28;20036;-69
2023/04/07 08:19:05;;;;;;;0.00;0.00;;;;;;;;;;5043060;28;20032;-62
2023/04/07 08:21:31;;;;;;;1999.90;999.90;;;;;;;;;;5041197;28;20048;-72
2023/04/07 08:23:57;;;;;;;1999.90;999.90;;;;;;;;;;5041522;28;20073;-70
2023/04/07 08:26:23;;;;;;;1999.90;999.90;;;;;;;;;;5040980;28;20457;-64
2023/04/07 08:28:52;;;;;;;1999.90;999.90;;;;;;;;;;5033383;28;20481;-72
2023/04/07 08:31:18;;;;;;;1999.90;999.90;;;;;;;;;;5032888;28;20022;-65
2023/04/07 08:33:45;;;;;;;1999.90;999.90;;;;;;;;;;5032682;28;20025;-65
2023/04/07 08:36:11;;;;;;;0.00;0.00;;;;;;;;;;5033150;28;20466;-72
2023/04/07 08:38:37;;;;;;;0.00;0.00;;;;;;;;;;5032853;28;20037;-71
2023/04/07 08:41:05;;;;;;;499.55;435.13;;;;;;;;;;5037513;28;20668;-64
2023/04/07 08:43:33;;;;;;;0.00;0.00;;;;;;;;;;5042345;28;20469;-69
2023/04/07 08:46:00;;;;;;;0.00;0.00;;;;;;;;;;5032688;28;20086;-64
2023/04/07 08:48:29;;;;;;;0.00;0.00;;;;;;;;;;5032332;28;20061;-64
2023/04/07 08:50:55;;;;;;;0.00;0.00;;;;;;;;;;5031412;28;20036;-67
2023/04/07 08:53:27;;;;;;;0.00;0.00;;;;;;;;;;5032570;28;20104;-68
2023/04/07 08:55:54;;;;;;;1999.90;999.90;;;;;;;;;;5031610;28;20057;-64
2023/04/07 08:58:20;;;;;;;1999.90;999.90;;;;;;;;;;5032304;28;20025;-64
2023/04/07 09:00:48;;;;;;;1999.90;999.90;;;;;;;;;;5032194;28;20033;-65
2023/04/07 09:03:15;;;;;;;1999.90;999.90;;;;;;;;;;5032475;28;20473;-74
2023/04/07 09:05:43;;;;;;;966.55;653.83;;;;;;;;;;5031947;28;20393;-66
2023/04/07 09:08:09;;;;;;;126.30;116.80;;;;;;;;;;5032334;28;20041;-66
2023/04/07 09:10:36;;;;;;;812.20;647.97;;;;;;;;;;5031489;28;20018;-64
2023/04/07 09:13:02;;;;;;;0.00;0.00;;;;;;;;;;5032277;28;20022;-67
2023/04/07 09:15:31;;;;;;;0.00;0.00;;;;;;;;;;5032269;28;20501;-63
2023/04/07 09:17:58;;;;;;;0.00;0.00;;;;;;;;;;5031807;28;20037;-72
2023/04/07 09:20:24;;;;;;;0.00;0.00;;;;;;;;;;5032232;28;20032;-62
2023/04/07 09:22:50;;;;;;;1999.90;999.90;;;;;;;;;;5031902;28;20034;-64
2023/04/07 09:25:16;;;;;;;1999.90;999.90;;;;;;;;;;5031982;28;20025;-63
2023/04/07 09:27:54;;;;;;;1999.90;999.90;;;;;;;;;;5040439;28;20505;-64
2023/04/07 09:30:20;;;;;;;0.00;0.00;;;;;;;;;;5040178;28;20380;-65
2023/04/07 09:32:46;;;;;;;0.00;0.00;;;;;;;;;;5039530;28;20190;-67
2023/04/07 09:35:12;;;;;;;0.00;0.00;;;;;;;;;;5040922;28;20441;-63
2023/04/07 09:37:38;;;;;;;1999.90;999.90;;;;;;;;;;5039708;28;20031;-68
2023/04/07 09:40:05;;;;;;;1999.90;999.90;;;;;;;;;;5047963;28;20095;-63
2023/04/07 09:42:34;;;;;;;0.00;0.00;;;;;;;;;;5041466;28;20108;-69
2023/04/07 09:45:00;;;;;;;1999.90;999.90;;;;;;;;;;5039221;28;20100;-67
2023/04/07 09:47:31;;;;;;;1999.90;999.90;;;;;;;;;;5040529;28;20076;-64
2023/04/07 09:50:00;;;;;;;1999.90;999.90;;;;;;;;;;5039248;28;20035;-63
2023/04/07 09:52:46;;;;;;;1999.90;999.90;;;;;;;;;;5039683;28;20018;-63
2023/04/07 09:55:13;;;;;;;1999.90;999.90;;;;;;;;;;5040023;28;20051;-69
2023/04/07 09:57:40;;;;;;;0.00;0.00;;;;;;;;;;5039017;28;20030;-64
2023/04/07 10:00:06;;;;;;;0.00;0.00;;;;;;;;;;5039636;28;20100;-68
2023/04/07 10:02:33;;;;;;;1033.57;631.00;;;;;;;;;;5039568;28;20021;-63
2023/04/07 10:04:59;;;;;;;1635.60;969.03;;;;;;;;;;5040347;28;20021;-65
2023/04/07 10:07:26;;;;;;;1999.90;999.90;;;;;;;;;;5038934;28;20041;-65
2023/04/07 10:09:52;;;;;;;1952.35;999.90;;;;;;;;;;5039510;28;20028;-63
2023/04/07 10:12:18;;;;;;;1417.57;999.90;;;;;;;;;;5037853;28;20381;-63
2023/04/07 10:14:46;;;;;;;1999.90;999.90;;;;;;;;;;5038998;28;20024;-66
2023/04/07 10:17:17;;;;;;;1999.90;999.90;;;;;;;;;;5041263;28;20038;-65
2023/04/07 10:19:43;;;;;;;1999.90;999.90;;;;;;;;;;5046874;28;20490;-73
2023/04/07 10:22:09;;;;;;;0.00;0.00;;;;;;;;;;5039221;28;20499;-70
2023/04/07 10:24:35;;;;;;;1999.90;999.90;;;;;;;;;;5038817;28;20029;-65
2023/04/07 10:27:07;;;;;;;1999.90;999.90;;;;;;;;;;5038771;28;20433;-71
2023/04/07 10:29:35;;;;;;;0.00;0.00;;;;;;;;;;5039048;28;20025;-69
2023/04/07 10:32:02;;;;;;;0.00;0.00;;;;;;;;;;5038178;28;20049;-65
2023/04/07 10:34:50;;;;;;;0.00;0.00;;;;;;;;;;5040330;28;20048;-67
2023/04/07 10:37:20;;;;;;;1999.90;999.90;;;;;;;;;;5036728;28;20507;-67
2023/04/07 10:39:46;;;;;;;1999.90;999.90;;;;;;;;;;5037976;28;20108;-66
2023/04/07 10:42:30;;;;;;;0.00;0.00;;;;;;;;;;5040332;28;20021;-68
2023/04/07 10:44:59;;;;;;;0.00;0.00;;;;;;;;;;5039742;28;20614;-70
2023/04/07 10:47:26;;;;;;;0.00;0.00;;;;;;;;;;5038688;28;20137;-70
2023/04/07 10:50:10;;;;;;;0.00;0.00;;;;;;;;;;5040244;28;20479;-64
2023/04/07 10:52:37;;;;;;;1999.90;999.90;;;;;;;;;;5040230;28;20472;-71
2023/04/07 10:55:21;;;;;;;0.00;0.00;;;;;;;;;;5039215;28;20103;-67
2023/04/07 10:58:06;;;;;;;1999.90;999.90;;;;;;;;;;5040093;28;20025;-65
2023/04/07 11:00:32;;;;;;;1999.90;999.90;;;;;;;;;;5040476;28;20040;-70
2023/04/07 11:03:09;;;;;;;1999.90;999.90;;;;;;;;;;5038384;28;20389;-70
2023/04/07 11:05:37;;;;;;;1999.90;999.90;;;;;;;;;;5037750;28;20025;-66
2023/04/07 11:08:05;;;;;;;1999.90;999.90;;;;;;;;;;5039051;28;20025;-70
2023/04/07 11:10:31;;;;;;;1999.90;999.90;;;;;;;;;;5040243;28;20508;-71
2023/04/07 11:13:02;;;;;;;1897.75;999.90;;;;;;;;;;5037522;28;20033;-66
2023/04/07 11:15:28;;;;;;;1999.90;999.90;;;;;;;;;;5038897;28;20025;-65
2023/04/07 11:18:12;;;;;;;1389.35;999.90;;;;;;;;;;5039590;28;20025;-73
2023/04/07 11:20:58;;;;;;;0.00;0.00;;;;;;;;;;5037647;28;20101;-75
2023/04/07 11:23:26;;;;;;;0.00;0.00;;;;;;;;;;5035577;28;20021;-71
2023/04/07 11:25:53;;;;;;;0.00;0.00;;;;;;;;;;5030286;28;20025;-74
2023/04/07 11:28:19;;;;;;;1999.90;999.90;;;;;;;;;;5030493;28;20128;-76
2023/04/07 11:30:48;;;;;;;1999.90;999.90;;;;;;;;;;5030279;28;20030;-72
2023/04/07 11:33:15;;;;;;;1999.90;999.90;;;;;;;;;;5046330;28;20045;-71
2023/04/07 11:36:00;;;;;;;0.00;0.00;;;;;;;;;;5039266;28;20037;-69
2023/04/07 11:38:30;;;;;;;0.00;0.00;;;;;;;;;;5042974;28;20029;-70
2023/04/07 11:40:56;;;;;;;1999.90;999.90;;;;;;;;;;5042937;28;20017;-70
2023/04/07 11:43:24;;;;;;;0.00;0.00;;;;;;;;;;5042550;28;20032;-68
2023/04/07 11:46:03;;;;;;;1999.90;999.90;;;;;;;;;;5041356;28;20010;-71
2023/04/07 11:48:30;;;;;;;1999.90;999.90;;;;;;;;;;5043554;28;20063;-65
2023/04/07 11:50:56;;;;;;;1999.90;999.90;;;;;;;;;;5044558;28;20025;-70
2023/04/07 11:53:27;;;;;;;1999.90;999.90;;;;;;;;;;5033436;28;20109;-71
2023/04/07 11:56:21;;;;;;;1999.90;999.90;;;;;;;;;;5031959;28;20362;-68
2023/04/07 11:58:50;;;;;;;1999.90;999.90;;;;;;;;;;5041281;28;20056;-66
2023/04/07 12:01:16;;;;;;;1999.90;999.90;;;;;;;;;;5036091;28;20064;-65
2023/04/07 12:04:00;;;;;;;1999.90;999.90;;;;;;;;;;5036885;28;20052;-71
2023/04/07 12:06:40;;;;;;;1999.90;999.90;;;;;;;;;;5035073;28;20037;-64
2023/04/07 12:09:07;;;;;;;1999.90;999.90;;;;;;;;;;5047170;28;20037;-64
2023/04/07 12:11:34;;;;;;;1999.90;999.90;;;;;;;;;;5049806;28;20036;-65
2023/04/07 12:14:03;;;;;;;1999.90;999.90;;;;;;;;;;5052749;28;20052;-64
2023/04/07 12:16:29;;;;;;;1999.90;999.90;;;;;;;;;;5052335;28;20033;-65
2023/04/07 12:18:56;;;;;;;1999.90;999.90;;;;;;;;;;5051277;28;20029;-66
2023/04/07 12:21:25;;;;;;;1999.90;999.90;;;;;;;;;;5052120;28;20480;-68
2023/04/07 12:23:51;;;;;;;1999.90;999.90;;;;;;;;;;5052743;28;20036;-65
2023/04/07 12:26:17;;;;;;;1999.90;999.90;;;;;;;;;;5052691;28;20048;-66
2023/04/07 12:28:44;;;;;;;1999.90;999.90;;;;;;;;;;5052316;28;20377;-72
2023/04/07 12:31:10;;;;;;;1999.90;999.90;;;;;;;;;;5052631;28;20025;-63
2023/04/07 12:33:36;;;;;;;1999.90;999.90;;;;;;;;;;5052278;28;20353;-64
2023/04/07 12:36:05;;;;;;;1999.90;999.90;;;;;;;;;;5054944;28;20025;-70
2023/04/07 12:38:33;;;;;;;1999.90;999.90;;;;;;;;;;5051149;28;20048;-65
2023/04/07 12:41:02;;;;;;;1999.90;999.90;;;;;;;;;;5032929;28;20853;-70
2023/04/07 12:43:31;;;;;;;1999.90;999.90;;;;;;;;;;5032307;28;20025;-66
2023/04/07 12:45:57;;;;;;;1999.90;999.90;;;;;;;;;;5032555;28;20025;-71
2023/04/07 12:48:26;;;;;;;1999.90;999.90;;;;;;;;;;5031850;28;20064;-70
2023/04/07 12:50:52;;;;;;;1999.90;999.90;;;;;;;;;;5032188;28;20026;-70
2023/04/07 12:53:18;;;;;;;1999.90;999.90;;;;;;;;;;5031901;28;20095;-73
2023/04/07 12:55:44;;;;;;;1999.90;999.90;;;;;;;;;;5045940;28;20374;-67
2023/04/07 12:58:10;;;;;;;1999.90;999.90;;;;;;;;;;5052267;28;20059;-65
2023/04/07 13:00:36;;;;;;;1999.90;999.90;;;;;;;;;;5052046;28;20056;-73
2023/04/07 13:03:02;;;;;;;1999.90;999.90;;;;;;;;;;5052457;28;20786;-73
2023/04/07 13:05:28;;;;;;;1999.90;999.90;;;;;;;;;;5052010;28;20047;-64
2023/04/07 13:07:55;;;;;;;1999.90;999.90;;;;;;;;;;5051648;28;20033;-68
2023/04/07 13:10:22;;;;;;;1999.90;999.90;;;;;;;;;;5053673;28;20036;-65
2023/04/07 13:12:48;;;;;;;1999.90;999.90;;;;;;;;;;5052839;28;20032;-69
2023/04/07 13:15:14;;;;;;;1999.90;999.90;;;;;;;;;;5052310;28;20021;-72
2023/04/07 13:17:41;;;;;;;1999.90;999.90;;;;;;;;;;5059149;28;20032;-65
2023/04/07 13:20:07;;;;;;;1999.90;999.90;;;;;;;;;;5052008;28;20419;-72
2023/04/07 13:22:33;;;;;;;1999.90;999.90;;;;;;;;;;5051482;28;20036;-69
2023/04/07 13:24:59;;;;;;;1999.90;999.90;;;;;;;;;;5052133;28;20108;-65
2023/04/07 13:27:26;;;;;;;1999.90;999.90;;;;;;;;;;5051804;28;20058;-64
2023/04/07 13:29:52;;;;;;;1999.90;999.90;;;;;;;;;;5051792;28;20017;-72
2023/04/07 13:32:18;;;;;;;1999.90;999.90;;;;;;;;;;5051873;28;20028;-70
2023/04/07 13:34:45;;;;;;;1999.90;999.90;;;;;;;;;;5051812;28;20025;-71
2023/04/07 13:37:11;;;;;;;1999.90;999.90;;;;;;;;;;5051554;28;20451;-71
2023/04/07 13:39:37;;;;;;;1999.90;999.90;;;;;;;;;;5051431;28;20734;-72
2023/04/07 13:42:04;;;;;;;1999.90;999.90;;;;;;;;;;5051882;28;20534;-70
2023/04/07 13:44:30;;;;;;;1999.90;999.90;;;;;;;;;;5051318;28;20067;-65
2023/04/07 13:46:57;;;;;;;1999.90;999.90;;;;;;;;;;5051696;28;20064;-71
2023/04/07 13:49:23;;;;;;;1999.90;999.90;;;;;;;;;;5051556;28;20021;-65
2023/04/07 13:51:50;;;;;;;1999.90;999.90;;;;;;;;;;5057062;28;20239;-65
2023/04/07 13:54:19;;;;;;;1999.90;999.90;;;;;;;;;;5051852;28;20028;-70
2023/04/07 13:56:47;;;;;;;1999.90;999.90;;;;;;;;;;5050371;28;20032;-67
2023/04/07 13:59:14;;;;;;;1999.90;999.90;;;;;;;;;;5057525;28;20016;-65
2023/04/07 14:01:40;;;;;;;1999.90;999.90;;;;;;;;;;5060223;28;20028;-64
2023/04/07 14:04:07;;;;;;;1999.90;999.90;;;;;;;;;;5062780;28;20058;-64
2023/04/07 14:06:35;;;;;;;1999.90;999.90;;;;;;;;;;5048139;28;20028;-64
2023/04/07 14:09:02;;;;;;;1999.90;999.90;;;;;;;;;;5047492;28;20023;-63
2023/04/07 14:11:28;;;;;;;1999.90;999.90;;;;;;;;;;5042851;28;20427;-70
2023/04/07 14:13:57;;;;;;;1999.90;999.90;;;;;;;;;;5040576;28;20025;-65
2023/04/07 14:16:25;;;;;;;1999.90;999.90;;;;;;;;;;5040656;28;20029;-66
2023/04/07 14:18:51;;;;;;;1999.90;999.90;;;;;;;;;;5038676;28;20069;-67
2023/04/07 14:21:17;;;;;;;1999.90;999.90;;;;;;;;;;5036029;28;20048;-75
2023/04/07 14:23:43;;;;;;;1999.90;999.90;;;;;;;;;;5034300;28;20100;-69
2023/04/07 14:26:10;;;;;;;1999.90;999.90;;;;;;;;;;5037315;28;20132;-70
2023/04/07 14:28:36;;;;;;;1999.90;999.90;;;;;;;;;;5039405;28;20056;-66
2023/04/07 14:31:02;;;;;;;1999.90;999.90;;;;;;;;;;5040144;28;20029;-76
2023/04/07 14:33:28;;;;;;;1999.90;999.90;;;;;;;;;;5050659;28;20036;-68
2023/04/07 14:35:54;;;;;;;1999.90;999.90;;;;;;;;;;5053879;28;20028;-65
2023/04/07 14:38:23;;;;;;;1999.90;999.90;;;;;;;;;;5057703;28;20459;-65
2023/04/07 14:40:49;;;;;;;1999.90;999.90;;;;;;;;;;5059180;28;20044;-64
2023/04/07 14:43:15;;;;;;;1999.90;999.90;;;;;;;;;;5063257;28;20029;-67
2023/04/07 14:45:41;;;;;;;1999.90;999.90;;;;;;;;;;5053794;28;20029;-65
2023/04/07 14:48:07;;;;;;;1999.90;999.90;;;;;;;;;;5058248;28;20053;-71
2023/04/07 14:50:33;;;;;;;1999.90;999.90;;;;;;;;;;5043178;28;20395;-77
2023/04/07 14:52:59;;;;;;;1999.90;999.90;;;;;;;;;;5044576;28;20033;-76
2023/04/07 14:55:26;;;;;;;1999.90;999.90;;;;;;;;;;5045590;28;20053;-79
2023/04/07 14:57:52;;;;;;;1999.90;999.90;;;;;;;;;;5049713;28;20501;-73
2023/04/07 15:00:18;;;;;;;1999.90;999.90;;;;;;;;;;5038129;28;20114;-67
2023/04/07 15:02:44;;;;;;;1999.90;990.95;;;;;;;;;;5034311;28;20048;-76
2023/04/07 15:05:10;;;;;;;1999.90;999.90;;;;;;;;;;5039750;28;20048;-74
2023/04/07 15:07:36;;;;;;;1999.90;999.90;;;;;;;;;;5037742;28;20468;-65
2023/04/07 15:10:02;;;;;;;1999.90;999.90;;;;;;;;;;5043036;28;20039;-72
2023/04/07 15:12:33;;;;;;;1999.90;999.90;;;;;;;;;;5044479;28;20345;-74
2023/04/07 15:14:59;;;;;;;1999.90;999.90;;;;;;;;;;5042634;28;20049;-68
2023/04/07 15:17:25;;;;;;;1999.90;999.90;;;;;;;;;;5045472;28;20075;-77
2023/04/07 15:19:51;;;;;;;1151.60;452.00;;;;;;;;;;5041992;28;20071;-68
2023/04/07 15:22:17;;;;;;;1999.90;999.90;;;;;;;;;;5044787;28;20403;-77
2023/04/07 15:24:43;;;;;;;1999.90;999.90;;;;;;;;;;5043379;28;20029;-71
2023/04/07 15:27:10;;;;;;;116.68;7.78;;;;;;;;;;5050275;28;20099;-71
2023/04/07 15:29:37;;;;;;;0.00;0.00;;;;;;;;;;5053496;28;20464;-69
2023/04/07 15:32:03;;;;;;;0.00;0.00;;;;;;;;;;5050459;28;20036;-71
2023/04/07 15:34:29;;;;;;;0.00;0.00;;;;;;;;;;5043987;28;20087;-66
2023/04/07 15:36:55;;;;;;;0.00;0.00;;;;;;;;;;5043011;28;20018;-76
2023/04/07 15:39:21;;;;;;;1999.90;999.90;;;;;;;;;;5042872;28;20028;-70
2023/04/07 15:41:47;;;;;;;1999.90;999.90;;;;;;;;;;5044385;28;20021;-66
2023/04/07 15:44:17;;;;;;;1999.90;999.90;;;;;;;;;;5045214;28;20024;-75
2023/04/07 15:46:43;;;;;;;1999.90;999.90;;;;;;;;;;5048224;28;20033;-72
2023/04/07 15:49:09;;;;;;;1999.90;999.90;;;;;;;;;;5037136;28;20044;-73
2023/04/07 15:51:35;;;;;;;1999.90;999.90;;;;;;;;;;5053599;28;20017;-64
2023/04/07 15:54:01;;;;;;;0.00;0.00;;;;;;;;;;5041992;28;20033;-73
2023/04/07 15:56:27;;;;;;;0.00;0.00;;;;;;;;;;5042120;28;20464;-63
2023/04/07 15:58:54;;;;;;;0.00;0.00;;;;;;;;;;5049733;28;20142;-62
2023/04/07 16:01:20;;;;;;;0.00;0.00;;;;;;;;;;5046020;28;20036;-65
2023/04/07 16:03:54;;;;;;;0.00;0.00;;;;;;;;;;5048529;28;20013;-69
2023/04/07 16:06:23;;;;;;;0.00;0.00;;;;;;;;;;5041676;28;20100;-65
2023/04/07 16:08:50;;;;;;;0.00;0.00;;;;;;;;;;5042049;28;20045;-67
2023/04/07 16:11:16;;;;;;;0.00;0.00;;;;;;;;;;5044434;28;20392;-66
2023/04/07 16:13:42;;;;;;;0.00;0.00;;;;;;;;;;5043050;28;20033;-72
2023/04/07 16:16:08;;;;;;;1999.90;999.90;;;;;;;;;;5045072;28;20025;-73
2023/04/07 16:18:34;;;;;;;0.00;0.00;;;;;;;;;;5041829;28;20093;-74
2023/04/07 16:21:00;;;;;;;1999.90;999.90;;;;;;;;;;5042794;28;20028;-65
2023/04/07 16:23:26;;;;;;;1999.90;999.90;;;;;;;;;;5045099;28;20029;-68
2023/04/07 16:25:52;;;;;;;1999.90;999.90;;;;;;;;;;5037686;28;20040;-65
2023/04/07 16:28:18;;;;;;;1999.90;999.90;;;;;;;;;;5049842;28;20032;-65
2023/04/07 16:30:44;;;;;;;1999.90;999.90;;;;;;;;;;5051497;28;20008;-65
2023/04/07 16:33:10;;;;;;;1999.90;999.90;;;;;;;;;;5041175;28;20025;-69
2023/04/07 16:35:36;;;;;;;1999.90;999.90;;;;;;;;;;5035307;28;20042;-63
2023/04/07 16:38:04;;;;;;;1999.90;999.90;;;;;;;;;;5042834;28;20078;-64
2023/04/07 16:40:31;;;;;;;1999.90;999.90;;;;;;;;;;5046324;28;20028;-64
2023/04/07 16:42:57;;;;;;;1999.90;999.90;;;;;;;;;;5049408;28;20032;-65
2023/04/07 16:45:23;;;;;;;1999.90;999.90;;;;;;;;;;5052649;28;20029;-65
2023/04/07 16:47:49;;;;;;;1999.90;999.90;;;;;;;;;;5052139;28;20555;-66
2023/04/07 16:50:15;;;;;;;1999.90;999.90;;;;;;;;;;5050773;28;20358;-65
2023/04/07 16:52:41;;;;;;;1999.90;999.90;;;;;;;;;;5061839;28;20043;-64
2023/04/07 16:55:07;;;;;;;1999.90;999.90;;;;;;;;;;5052207;28;20025;-71
2023/04/07 16:57:33;;;;;;;1999.90;999.90;;;;;;;;;;5052592;28;20052;-65
2023/04/07 17:00:00;;;;;;;1999.90;999.90;;;;;;;;;;5048902;28;20546;-69
2023/04/07 17:02:26;;;;;;;1999.90;999.90;;;;;;;;;;5052408;28;20086;-75
2023/04/07 17:04:53;;;;;;;1999.90;999.90;;;;;;;;;;5052113;28;20071;-65
2023/04/07 17:07:19;;;;;;;1999.90;999.90;;;;;;;;;;5052028;28;20120;-65
2023/04/07 17:09:45;;;;;;;1999.90;999.90;;;;;;;;;;5052050;28;20096;-64
2023/04/07 17:12:15;;;;;;;1999.90;999.90;;;;;;;;;;5061570;28;20379;-72
2023/04/07 17:14:41;;;;;;;1999.90;999.90;;;;;;;;;;5051989;28;20017;-72
2023/04/07 17:17:07;;;;;;;1999.90;999.90;;;;;;;;;;5051319;28;20032;-73
2023/04/07 17:19:34;;;;;;;1999.90;999.90;;;;;;;;;;5053375;28;20033;-71
2023/04/07 17:22:00;;;;;;;1999.90;999.90;;;;;;;;;;5066545;28;20017;-67
2023/04/07 17:24:26;;;;;;;1999.90;999.90;;;;;;;;;;5057830;28;20051;-67
2023/04/07 17:26:52;;;;;;;1999.90;999.90;;;;;;;;;;5051928;28;20033;-67
2023/04/07 17:29:19;;;;;;;1999.90;999.90;;;;;;;;;;5059832;28;20365;-67
2023/04/07 17:31:45;;;;;;;1999.90;999.90;;;;;;;;;;5050771;28;20054;-72
2023/04/07 17:34:11;;;;;;;1999.90;999.90;;;;;;;;;;5054465;28;20084;-73
2023/04/07 17:36:38;;;;;;;1999.90;999.90;;;;;;;;;;5049621;28;20028;-70
2023/04/07 17:39:06;;;;;;;1999.90;999.90;;;;;;;;;;5071772;28;20105;-75
2023/04/07 17:41:33;;;;;;;1999.90;999.90;;;;;;;;;;5060166;28;20028;-69
2023/04/07 17:44:00;;;;;;;1999.90;999.90;;;;;;;;;;5074861;28;20024;-71
2023/04/07 17:46:26;;;;;;;1999.90;999.90;;;;;;;;;;5071223;28;20024;-67
2023/04/07 17:48:53;;;;;;;1999.90;999.90;;;;;;;;;;5071156;28;20032;-66
2023/04/07 17:51:19;;;;;;;1999.90;999.90;;;;;;;;;;5071664;28;20430;-67
2023/04/07 17:53:45;;;;;;;1999.90;999.90;;;;;;;;;;5070683;28;20381;-72
2023/04/07 17:56:12;;;;;;;1999.90;999.90;;;;;;;;;;5054841;28;20025;-72
2023/04/07 17:58:38;;;;;;;1999.90;999.90;;;;;;;;;;5050778;28;20547;-72
2023/04/07 18:01:06;;;;;;;1999.90;999.90;;;;;;;;;;5048455;28;20060;-76
2023/04/07 18:03:32;;;;;;;1999.90;999.90;;;;;;;;;;5039056;28;20094;-73
2023/04/07 18:05:59;;;;;;;1999.90;999.90;;;;;;;;;;5037756;28;20079;-73
2023/04/07 18:08:25;;;;;;;1999.90;999.90;;;;;;;;;;5036410;28;20049;-72
2023/04/07 18:10:52;;;;;;;1999.90;999.90;;;;;;;;;;5040297;28;20094;-71
2023/04/07 18:15:53;;;;;;;0.00;0.00;;;;;;;;;;5256786;23;20038;-69
2023/04/07 18:18:20;;;;;;;0.00;0.00;;;;;;;;;;4980744;28;20390;-69
2023/04/07 18:20:47;;;;;;;1999.90;999.90;;;;;;;;;;4982064;28;20023;-70
2023/04/07 18:23:13;;;;;;;0.00;0.00;;;;;;;;;;4981154;28;20031;-72
2023/04/07 18:25:39;;;;;;;1999.90;999.90;;;;;;;;;;4980237;28;20065;-70
2023/04/07 18:28:06;;;;;;;1999.90;999.90;;;;;;;;;;4979251;28;20097;-71
2023/04/07 18:30:32;;;;;;;1999.90;999.90;;;;;;;;;;4985466;28;20030;-74
2023/04/07 18:32:58;;;;;;;232.32;20.38;;;;;;;;;;4991087;28;20065;-76
2023/04/07 18:35:24;;;;;;;1999.90;999.90;;;;;;;;;;4981575;28;20505;-72
2023/04/07 18:37:54;;;;;;;1999.90;999.90;;;;;;;;;;4987802;28;20184;-76
2023/04/07 18:40:31;;;;;;;1999.90;999.90;;;;;;;;;;4990874;28;20028;-73
2023/04/07 18:42:57;;;;;;;1999.90;999.90;;;;;;;;;;4980172;28;20026;-77
2023/04/07 18:45:24;;;;;;;1999.90;999.90;;;;;;;;;;4972150;28;20126;-75
2023/04/07 18:47:50;;;;;;;1999.90;999.90;;;;;;;;;;4987254;28;20042;-69
2023/04/07 18:50:17;;;;;;;1999.90;999.90;;;;;;;;;;4977621;28;20038;-76
2023/04/07 18:52:43;;;;;;;1999.90;999.90;;;;;;;;;;4988128;28;20481;-65
2023/04/07 18:55:09;;;;;;;1999.90;999.90;;;;;;;;;;4991082;28;20055;-74
2023/04/07 18:57:37;;;;;;;1999.90;999.90;;;;;;;;;;4981875;28;20162;-75
2023/04/07 19:00:03;;;;;;;1999.90;999.90;;;;;;;;;;4980505;28;20046;-79
2023/04/07 19:02:30;;;;;;;1999.90;999.90;;;;;;;;;;4989712;28;20158;-67
2023/04/07 19:04:56;;;;;;;1999.90;999.90;;;;;;;;;;4980789;28;20110;-78
2023/04/07 19:07:22;;;;;;;1999.90;999.90;;;;;;;;;;4982111;28;20048;-67
2023/04/07 19:09:51;;;;;;;1999.90;999.90;;;;;;;;;;4983329;28;20031;-75
2023/04/07 19:12:17;;;;;;;1999.90;999.90;;;;;;;;;;4979463;28;20130;-66
2023/04/07 19:14:43;;;;;;;1999.90;999.90;;;;;;;;;;4978443;28;20033;-64
2023/04/07 19:17:10;;;;;;;1999.90;999.90;;;;;;;;;;4980152;28;20031;-69
2023/04/07 19:19:36;;;;;;;1999.90;999.90;;;;;;;;;;4979138;28;20026;-66
2023/04/07 19:22:02;;;;;;;1999.90;999.90;;;;;;;;;;4980119;28;20030;-65
2023/04/07 19:24:28;;;;;;;1999.90;999.90;;;;;;;;;;4980494;28;20030;-66
2023/04/07 19:26:55;;;;;;;1999.90;999.90;;;;;;;;;;4981420;28;20096;-70
2023/04/07 19:29:22;;;;;;;1999.90;999.90;;;;;;;;;;4978756;28;20133;-71
2023/04/07 19:31:50;;;;;;;1999.90;999.90;;;;;;;;;;4979290;28;20049;-65
2023/04/07 19:34:16;;;;;;;1999.90;999.90;;;;;;;;;;4979996;28;20084;-68
2023/04/07 19:36:42;;;;;;;1999.90;999.90;;;;;;;;;;4979863;28;20034;-70
2023/04/07 19:39:08;;;;;;;1999.90;999.90;;;;;;;;;;4978159;28;20030;-65
2023/04/07 19:41:34;;;;;;;1999.90;999.90;;;;;;;;;;4979467;28;20057;-63
2023/04/07 19:44:00;;;;;;;1999.90;999.90;;;;;;;;;;4978111;28;20478;-64
2023/04/07 19:46:26;;;;;;;1999.90;999.90;;;;;;;;;;4978076;28;20475;-68
2023/04/07 19:48:52;;;;;;;1999.90;999.90;;;;;;;;;;4979335;28;20050;-68
2023/04/07 19:51:18;;;;;;;1999.90;999.90;;;;;;;;;;4978224;28;20031;-65
2023/04/07 19:53:44;;;;;;;1999.90;999.90;;;;;;;;;;4980501;28;20109;-68
2023/04/07 19:56:12;;;;;;;1999.90;999.90;;;;;;;;;;4982690;28;20030;-67
2023/04/07 19:58:38;;;;;;;1999.90;999.90;;;;;;;;;;4982812;28;20412;-65
2023/04/07 20:01:04;;;;;;;1999.90;999.90;;;;;;;;;;4975014;28;20034;-64
2023/04/07 20:03:31;;;;;;;1999.90;999.90;;;;;;;;;;4983422;28;20054;-71
2023/04/07 20:05:57;;;;;;;1999.90;999.90;;;;;;;;;;4981634;28;20054;-67
2023/04/07 20:08:23;;;;;;;1999.90;999.90;;;;;;;;;;4983737;28;20088;-68
2023/04/07 20:10:52;;;;;;;1999.90;999.90;;;;;;;;;;4974483;28;20027;-68
2023/04/07 20:13:19;;;;;;;1999.90;999.90;;;;;;;;;;4980506;28;20019;-67
2023/04/07 20:15:45;;;;;;;1999.90;999.90;;;;;;;;;;4982186;28;20462;-65
2023/04/07 20:18:11;;;;;;;1999.90;999.90;;;;;;;;;;4982211;28;20065;-67
2023/04/07 20:20:37;;;;;;;1999.90;999.90;;;;;;;;;;4983070;28;20026;-68
2023/04/07 20:23:03;;;;;;;1999.90;999.90;;;;;;;;;;4988547;28;20030;-68
2023/04/07 20:25:29;;;;;;;1999.90;999.90;;;;;;;;;;4993657;28;20026;-68
2023/04/07 20:27:55;;;;;;;1999.90;999.90;;;;;;;;;;4993538;28;20041;-65
2023/04/07 20:30:21;;;;;;;1999.90;999.90;;;;;;;;;;4993704;28;20025;-69
2023/04/07 20:32:47;;;;;;;1999.90;999.90;;;;;;;;;;4982808;28;20029;-68
2023/04/07 20:35:14;;;;;;;1999.90;999.90;;;;;;;;;;4983104;28;20121;-72
2023/04/07 20:37:41;;;;;;;1999.90;999.90;;;;;;;;;;4984512;28;20863;-66
2023/04/07 20:40:07;;;;;;;1999.90;999.90;;;;;;;;;;4981349;28;20383;-67